sensor_id;sensor_type;location;lat;lon;timestamp;pressure;altitude;pressure_sealevel;temperature;humidity
43691;BME280;29293;52.190;21.226;2024-03-08T00:06:06;101246.94;;;-4.17;100.00
43691;BME280;29293;52.190;21.226;2024-03-08T00:21:13;101232.90;;;-4.24;100.00
43691;BME280;29293;52.190;21.226;2024-03-08T00:36:20;101226.86;;;-4.33;100.00
43691;BME280;29293;52.190;21.226;2024-03-08T00:51:27;101227.60;;;-4.38;100.00
43691;BME280;29293;52.190;21.226;2024-03-08T01:06:35;101224.42;;;-4.52;100.00
43691;BME280;29293;52.190;21.226;2024-03-08T01:21:41;101221.73;;;-4.60;100.00
43691;BME280;29293;52.190;21.226;2024-03-08T01:36:48;101208.52;;;-4.74;100.00
43691;BME280;29293;52.190;21.226;2024-03-08T01:51:56;101207.36;;;-4.85;100.00
43691;BME280;29293;52.190;21.226;2024-03-08T02:07:03;101196.64;;;-4.91;100.00
43691;BME280;29293;52.190;21.226;2024-03-08T02:22:11;101188.17;;;-5.01;100.00
43691;BME280;29293;52.190;21.226;2024-03-08T02:37:18;101180.50;;;-5.08;100.00
43691;BME280;29293;52.190;21.226;2024-03-08T02:52:24;101175.23;;;-5.18;100.00
43691;BME280;29293;52.190;21.226;2024-03-08T03:07:31;101170.05;;;-5.27;100.00
43691;BME280;29293;52.190;21.226;2024-03-08T03:22:39;101167.10;;;-5.33;100.00
43691;BME280;29293;52.190;21.226;2024-03-08T03:37:49;101166.57;;;-5.38;100.00
43691;BME280;29293;52.190;21.226;2024-03-08T03:53:08;101160.90;;;-5.42;100.00
43691;BME280;29293;52.190;21.226;2024-03-08T04:08:15;101153.69;;;-5.52;100.00
43691;BME280;29293;52.190;21.226;2024-03-08T04:23:23;101144.56;;;-5.63;100.00
43691;BME280;29293;52.190;21.226;2024-03-08T04:38:33;101144.03;;;-5.68;100.00
43691;BME280;29293;52.190;21.226;2024-03-08T04:53:40;101144.70;;;-5.76;100.00
43691;BME280;29293;52.190;21.226;2024-03-08T05:08:49;101139.96;;;-5.83;100.00
43691;BME280;29293;52.190;21.226;2024-03-08T05:23:56;101145.39;;;-5.87;100.00
43691;BME280;29293;52.190;21.226;2024-03-08T05:39:03;101147.27;;;-5.85;100.00
43691;BME280;29293;52.190;21.226;2024-03-08T05:54:13;101142.00;;;-5.70;100.00
43691;BME280;29293;52.190;21.226;2024-03-08T06:09:20;101139.93;;;-5.47;100.00
43691;BME280;29293;52.190;21.226;2024-03-08T06:24:28;101142.38;;;-5.09;100.00
43691;BME280;29293;52.190;21.226;2024-03-08T06:39:35;101144.29;;;-4.58;100.00
43691;BME280;29293;52.190;21.226;2024-03-08T06:54:42;101141.89;;;-4.04;100.00
43691;BME280;29293;52.190;21.226;2024-03-08T07:09:49;101142.50;;;-3.52;100.00
43691;BME280;29293;52.190;21.226;2024-03-08T07:24:56;101138.36;;;-2.77;100.00
43691;BME280;29293;52.190;21.226;2024-03-08T07:40:23;101130.14;;;-1.86;100.00
43691;BME280;29293;52.190;21.226;2024-03-08T07:55:30;101123.77;;;-0.99;100.00
43691;BME280;29293;52.190;21.226;2024-03-08T08:10:37;101112.43;;;-0.15;100.00
43691;BME280;29293;52.190;21.226;2024-03-08T08:25:44;101112.41;;;0.68;100.00
43691;BME280;29293;52.190;21.226;2024-03-08T08:40:51;101099.84;;;1.56;100.00
43691;BME280;29293;52.190;21.226;2024-03-08T08:55:57;101088.55;;;2.49;100.00
43691;BME280;29293;52.190;21.226;2024-03-08T09:11:06;101081.58;;;3.27;100.00
43691;BME280;29293;52.190;21.226;2024-03-08T09:26:13;101070.21;;;3.81;100.00
43691;BME280;29293;52.190;21.226;2024-03-08T09:41:20;101061.25;;;4.39;100.00
43691;BME280;29293;52.190;21.226;2024-03-08T09:56:27;101055.31;;;4.83;100.00
43691;BME280;29293;52.190;21.226;2024-03-08T10:11:35;101043.04;;;5.26;100.00
43691;BME280;29293;52.190;21.226;2024-03-08T10:26:42;101034.65;;;5.75;100.00
43691;BME280;29293;52.190;21.226;2024-03-08T10:41:57;101026.98;;;5.98;100.00
43691;BME280;29293;52.190;21.226;2024-03-08T10:57:07;101017.50;;;6.41;100.00
43691;BME280;29293;52.190;21.226;2024-03-08T11:12:23;101002.27;;;6.85;100.00
43691;BME280;29293;52.190;21.226;2024-03-08T11:27:36;100989.73;;;7.29;100.00
43691;BME280;29293;52.190;21.226;2024-03-08T11:42:45;100980.62;;;7.63;100.00
43691;BME280;29293;52.190;21.226;2024-03-08T11:58:01;100964.90;;;7.86;100.00
43691;BME280;29293;52.190;21.226;2024-03-08T12:13:08;100946.73;;;7.92;100.00
43691;BME280;29293;52.190;21.226;2024-03-08T12:28:20;100931.19;;;8.09;100.00
43691;BME280;29293;52.190;21.226;2024-03-08T12:43:30;100916.63;;;8.33;99.81
43691;BME280;29293;52.190;21.226;2024-03-08T12:58:38;100902.05;;;8.70;100.00
43691;BME280;29293;52.190;21.226;2024-03-08T13:13:49;100881.92;;;8.91;92.17
43691;BME280;29293;52.190;21.226;2024-03-08T13:28:56;100871.96;;;8.83;88.83
43691;BME280;29293;52.190;21.226;2024-03-08T13:44:06;100849.44;;;8.68;87.83
43691;BME280;29293;52.190;21.226;2024-03-08T13:59:13;100833.58;;;8.51;86.14
43691;BME280;29293;52.190;21.226;2024-03-08T14:14:25;100826.20;;;8.32;86.44
43691;BME280;29293;52.190;21.226;2024-03-08T14:29:32;100817.13;;;8.20;86.12
43691;BME280;29293;52.190;21.226;2024-03-08T14:44:40;100810.91;;;8.17;82.01
43691;BME280;29293;52.190;21.226;2024-03-08T14:59:48;100806.06;;;7.95;63.76
43691;BME280;29293;52.190;21.226;2024-03-08T15:14:56;100794.58;;;7.65;64.76
43691;BME280;29293;52.190;21.226;2024-03-08T15:30:03;100790.44;;;7.27;65.86
43691;BME280;29293;52.190;21.226;2024-03-08T15:45:16;100782.48;;;6.69;66.75
43691;BME280;29293;52.190;21.226;2024-03-08T16:00:26;100788.15;;;6.05;71.57
43691;BME280;29293;52.190;21.226;2024-03-08T16:15:47;100780.86;;;5.30;74.22
43691;BME280;29293;52.190;21.226;2024-03-08T16:31:08;100781.92;;;4.63;76.61
43691;BME280;29293;52.190;21.226;2024-03-08T16:46:19;100785.70;;;3.88;80.04
43691;BME280;29293;52.190;21.226;2024-03-08T17:01:27;100787.84;;;3.04;84.64
43691;BME280;29293;52.190;21.226;2024-03-08T17:32:11;100788.12;;;1.55;99.32
43691;BME280;29293;52.190;21.226;2024-03-08T17:47:18;100780.85;;;1.01;100.00
43691;BME280;29293;52.190;21.226;2024-03-08T18:02:25;100786.06;;;0.55;100.00
43691;BME280;29293;52.190;21.226;2024-03-08T18:17:32;100789.08;;;0.15;100.00
43691;BME280;29293;52.190;21.226;2024-03-08T18:32:41;100785.58;;;-0.19;100.00
43691;BME280;29293;52.190;21.226;2024-03-08T18:47:50;100793.29;;;-0.54;100.00
43691;BME280;29293;52.190;21.226;2024-03-08T19:03:00;100787.42;;;-0.83;100.00
43691;BME280;29293;52.190;21.226;2024-03-08T19:18:11;100791.69;;;-1.07;100.00
43691;BME280;29293;52.190;21.226;2024-03-08T19:33:19;100785.30;;;-1.25;100.00
43691;BME280;29293;52.190;21.226;2024-03-08T19:48:26;100778.42;;;-1.38;100.00
43691;BME280;29293;52.190;21.226;2024-03-08T20:03:34;100776.27;;;-1.52;100.00
43691;BME280;29293;52.190;21.226;2024-03-08T20:18:42;100765.50;;;-1.69;100.00
43691;BME280;29293;52.190;21.226;2024-03-08T20:33:49;100758.41;;;-1.88;100.00
43691;BME280;29293;52.190;21.226;2024-03-08T20:48:56;100759.44;;;-2.09;100.00
43691;BME280;29293;52.190;21.226;2024-03-08T21:04:06;100754.14;;;-2.28;100.00
43691;BME280;29293;52.190;21.226;2024-03-08T21:19:16;100754.49;;;-2.57;100.00
43691;BME280;29293;52.190;21.226;2024-03-08T21:34:25;100752.27;;;-2.65;100.00
43691;BME280;29293;52.190;21.226;2024-03-08T21:49:32;100748.47;;;-2.70;100.00
43691;BME280;29293;52.190;21.226;2024-03-08T22:04:38;100741.23;;;-2.77;100.00
43691;BME280;29293;52.190;21.226;2024-03-08T22:19:48;100734.70;;;-2.91;100.00
43691;BME280;29293;52.190;21.226;2024-03-08T22:34:56;100732.46;;;-3.06;100.00
43691;BME280;29293;52.190;21.226;2024-03-08T22:50:03;100717.11;;;-3.20;100.00
43691;BME280;29293;52.190;21.226;2024-03-08T23:05:10;100712.18;;;-3.27;100.00
43691;BME280;29293;52.190;21.226;2024-03-08T23:20:21;100715.52;;;-3.40;100.00
43691;BME280;29293;52.190;21.226;2024-03-08T23:35:36;100712.45;;;-3.46;100.00
43691;BME280;29293;52.190;21.226;2024-03-08T23:50:43;100709.39;;;-3.52;100.00
